Time;durP1;ratioP1;P1;durP2;ratioP2;P2;SDS_P1;SDS_P2;PMS_P1;PMS_P2;Temp;Humidity;BMP_temperature;BMP_pressure;BME280_temperature;BME280_humidity;BME280_pressure;Samples;Min_cycle;Max_cycle;Signal;HPM_P1;HPM_P2
2022/03/07 00:01:29;;;;;;;16.55;7.55;;;;;;;-2.65;66.51;100172.91;5038403;28;20426;-54
2022/03/07 00:03:55;;;;;;;15.00;8.68;;;;;;;-2.69;67.11;100178.56;5031849;28;20399;-51
2022/03/07 00:06:21;;;;;;;13.60;8.25;;;;;;;-2.67;67.01;100177.47;5037179;28;20456;-53
2022/03/07 00:08:46;;;;;;;16.55;8.77;;;;;;;-2.66;68.26;100175.69;5031389;28;20033;-54
2022/03/07 00:11:12;;;;;;;19.88;9.27;;;;;;;-2.56;68.39;100171.28;5030269;28;20033;-54
2022/03/07 00:13:37;;;;;;;18.08;9.10;;;;;;;-2.68;68.03;100170.53;5035631;28;20495;-52
2022/03/07 00:16:03;;;;;;;14.25;8.15;;;;;;;-2.65;68.30;100174.69;5034255;28;20021;-50
2022/03/07 00:18:29;;;;;;;13.07;7.75;;;;;;;-2.65;68.62;100170.28;5035953;28;20036;-53
2022/03/07 00:20:55;;;;;;;15.35;8.02;;;;;;;-2.64;68.52;100166.69;5030645;28;20035;-53
2022/03/07 00:23:20;;;;;;;17.52;8.32;;;;;;;-2.71;67.71;100170.00;5032026;28;20049;-51
2022/03/07 00:25:46;;;;;;;12.30;7.65;;;;;;;-2.78;67.60;100168.88;5033224;28;20376;-53
2022/03/07 00:28:11;;;;;;;16.70;8.05;;;;;;;-2.80;68.22;100173.41;5038345;28;20490;-52
2022/03/07 00:30:37;;;;;;;15.63;8.35;;;;;;;-2.84;68.29;100181.56;5033551;28;20039;-54
2022/03/07 00:33:02;;;;;;;15.48;7.70;;;;;;;-2.85;67.10;100174.63;5019099;28;20041;-53
2022/03/07 00:35:28;;;;;;;14.38;7.97;;;;;;;-2.86;68.18;100180.84;5039433;28;20488;-52
2022/03/07 00:37:53;;;;;;;11.65;7.22;;;;;;;-2.91;67.82;100188.28;5043901;28;20033;-51
2022/03/07 00:40:18;;;;;;;15.20;7.18;;;;;;;-2.95;68.19;100178.19;5036714;28;20029;-53
2022/03/07 00:42:44;;;;;;;15.13;7.47;;;;;;;-2.89;67.91;100183.75;5029247;28;20021;-52
2022/03/07 00:45:10;;;;;;;13.95;7.97;;;;;;;-2.90;67.20;100182.06;5038568;28;20030;-51
2022/03/07 00:47:35;;;;;;;15.25;6.88;;;;;;;-2.79;66.47;100175.91;5033250;28;20069;-53
2022/03/07 00:50:04;;;;;;;11.13;7.30;;;;;;;-2.70;65.94;100182.13;5037052;28;20391;-52
2022/03/07 00:52:30;;;;;;;12.13;6.15;;;;;;;-2.73;65.15;100178.00;5036913;28;20428;-53
2022/03/07 00:54:55;;;;;;;11.98;7.07;;;;;;;-2.71;65.52;100183.13;5035571;28;20032;-53
2022/03/07 00:57:20;;;;;;;15.02;7.70;;;;;;;-2.74;65.45;100186.00;5031626;28;20044;-52
2022/03/07 00:59:46;;;;;;;14.23;7.13;;;;;;;-2.80;65.78;100191.78;5033118;28;20078;-53
2022/03/07 01:02:11;;;;;;;13.32;7.88;;;;;;;-2.84;66.07;100197.31;5033521;28;20032;-54
2022/03/07 01:04:37;;;;;;;17.00;7.70;;;;;;;-2.89;66.32;100199.50;5032653;28;20503;-50
2022/03/07 01:07:03;;;;;;;13.23;7.47;;;;;;;-2.96;66.67;100187.84;5034157;28;20022;-51
2022/03/07 01:09:28;;;;;;;15.98;7.97;;;;;;;-3.00;66.82;100191.69;5037506;28;20494;-52
2022/03/07 01:11:53;;;;;;;12.95;7.20;;;;;;;-2.99;67.15;100193.38;5038072;28;20037;-51
2022/03/07 01:14:19;;;;;;;13.57;7.65;;;;;;;-3.10;67.26;100191.66;5032449;28;20401;-54
2022/03/07 01:16:44;;;;;;;13.30;7.40;;;;;;;-3.10;67.19;100190.81;5034305;28;20399;-53
2022/03/07 01:19:10;;;;;;;12.95;7.30;;;;;;;-3.17;67.39;100181.81;5034409;28;20021;-52
2022/03/07 01:21:37;;;;;;;15.82;8.23;;;;;;;-3.20;67.58;100189.94;5027910;28;20029;-52
2022/03/07 01:24:02;;;;;;;13.18;7.75;;;;;;;-3.27;68.15;100185.25;5030993;28;20108;-52
2022/03/07 01:26:28;;;;;;;11.68;7.65;;;;;;;-3.31;67.87;100183.81;5039047;28;20095;-54
2022/03/07 01:28:53;;;;;;;12.25;7.43;;;;;;;-3.34;67.71;100178.84;5035427;28;20033;-52
2022/03/07 01:31:19;;;;;;;12.55;8.30;;;;;;;-3.32;67.69;100183.94;5027411;28;20040;-50
2022/03/07 01:33:44;;;;;;;11.32;7.57;;;;;;;-3.35;67.59;100185.03;5031967;28;20067;-54
2022/03/07 01:36:09;;;;;;;16.98;8.50;;;;;;;-3.36;67.61;100193.88;5028507;28;20032;-53
2022/03/07 01:38:35;;;;;;;12.95;8.05;;;;;;;-3.41;67.94;100188.19;5038678;28;20045;-54
2022/03/07 01:41:00;;;;;;;15.25;7.75;;;;;;;-3.41;67.85;100196.06;5029311;28;20035;-53
2022/03/07 01:43:26;;;;;;;15.88;9.57;;;;;;;-3.43;67.85;100190.09;5042274;28;20459;-53
2022/03/07 01:45:52;;;;;;;15.07;8.48;;;;;;;-3.47;67.48;100178.19;5027200;28;20056;-50
2022/03/07 01:48:17;;;;;;;14.70;8.10;;;;;;;-3.36;66.72;100185.19;5029304;28;20101;-53
2022/03/07 01:50:43;;;;;;;13.00;7.82;;;;;;;-3.42;67.07;100183.91;5032487;28;20025;-54
2022/03/07 01:53:08;;;;;;;16.05;8.50;;;;;;;-3.45;66.94;100178.91;5032254;28;20323;-53
2022/03/07 01:55:33;;;;;;;16.50;8.75;;;;;;;-3.50;67.13;100179.28;5032060;28;20033;-51
2022/03/07 01:57:59;;;;;;;20.15;8.35;;;;;;;-3.58;67.27;100178.28;5028875;28;20561;-53
2022/03/07 02:00:25;;;;;;;13.88;8.15;;;;;;;-3.63;67.44;100172.59;5029319;28;20033;-52
2022/03/07 02:02:51;;;;;;;12.30;7.85;;;;;;;-3.62;67.14;100179.50;5035114;28;20446;-51
2022/03/07 02:05:16;;;;;;;14.02;7.07;;;;;;;-3.65;67.07;100174.50;5036931;28;20342;-54
2022/03/07 02:07:42;;;;;;;11.13;6.57;;;;;;;-3.61;66.38;100181.16;5037774;28;20112;-52
2022/03/07 02:10:08;;;;;;;13.18;6.70;;;;;;;-3.54;65.90;100177.09;5037388;28;20483;-51
2022/03/07 02:12:33;;;;;;;15.50;7.97;;;;;;;-3.58;66.08;100167.81;5032264;28;20402;-50
2022/03/07 02:14:59;;;;;;;17.02;8.00;;;;;;;-3.66;66.35;100178.94;5034229;28;20049;-53
2022/03/07 02:17:24;;;;;;;17.05;7.68;;;;;;;-3.69;66.60;100174.78;5032583;28;20025;-51
2022/03/07 02:19:50;;;;;;;13.82;8.70;;;;;;;-3.77;67.20;100171.09;5029731;28;20060;-54
2022/03/07 02:22:16;;;;;;;14.07;7.93;;;;;;;-3.81;67.13;100173.16;5034123;28;20056;-54
2022/03/07 02:24:42;;;;;;;13.40;7.40;;;;;;;-3.82;67.35;100161.03;5012644;28;20072;-52
2022/03/07 02:27:08;;;;;;;18.55;8.20;;;;;;;-3.82;67.08;100168.03;5030992;28;20034;-53
2022/03/07 02:29:33;;;;;;;12.20;7.53;;;;;;;-3.79;66.69;100163.41;5034820;28;20135;-51
2022/03/07 02:31:59;;;;;;;12.50;7.13;;;;;;;-3.79;66.81;100167.81;5028400;28;20053;-53
2022/03/07 02:34:25;;;;;;;14.40;7.60;;;;;;;-3.81;66.80;100170.53;5028839;28;20334;-51
2022/03/07 02:36:50;;;;;;;10.27;6.75;;;;;;;-3.86;67.44;100169.28;5028111;28;20119;-51
2022/03/07 02:39:16;;;;;;;11.43;6.78;;;;;;;-3.90;67.52;100173.91;5027899;28;20034;-53
2022/03/07 02:41:43;;;;;;;15.93;7.40;;;;;;;-3.95;67.87;100169.06;5027953;28;20595;-54
2022/03/07 02:44:08;;;;;;;13.52;7.75;;;;;;;-3.99;67.89;100175.50;5032760;28;20117;-53
2022/03/07 02:46:34;;;;;;;13.77;7.35;;;;;;;-3.99;69.64;100172.91;5028103;28;20396;-53
2022/03/07 02:48:59;;;;;;;12.10;7.03;;;;;;;-4.03;68.62;100175.88;5035455;28;20133;-54
2022/03/07 02:51:25;;;;;;;12.13;7.57;;;;;;;-4.08;69.18;100172.81;5036742;28;20021;-51
2022/03/07 02:53:50;;;;;;;10.13;6.63;;;;;;;-4.07;68.94;100166.59;5033924;28;20021;-53
2022/03/07 02:56:16;;;;;;;14.43;7.78;;;;;;;-4.08;68.54;100170.19;5027310;28;20167;-53
2022/03/07 02:58:43;;;;;;;13.07;6.82;;;;;;;-4.06;68.57;100160.44;5028576;28;20054;-53
2022/03/07 03:01:08;;;;;;;16.35;7.95;;;;;;;-4.12;69.83;100169.59;5042617;28;20170;-52
2022/03/07 03:03:33;;;;;;;11.63;7.72;;;;;;;-4.18;70.90;100168.31;5031074;28;20041;-51
2022/03/07 03:05:59;;;;;;;11.77;6.85;;;;;;;-4.26;70.59;100175.16;5040435;28;20426;-52
2022/03/07 03:08:24;;;;;;;16.48;7.53;;;;;;;-4.31;72.40;100167.66;5032541;28;20034;-53
2022/03/07 03:10:50;;;;;;;14.55;7.55;;;;;;;-4.42;70.36;100175.53;5031406;28;20457;-53
2022/03/07 03:13:20;;;;;;;14.43;8.05;;;;;;;-4.39;71.42;100172.69;5031244;28;20502;-54
2022/03/07 03:15:46;;;;;;;15.02;7.07;;;;;;;-4.43;70.73;100163.41;5039707;28;20526;-53
2022/03/07 03:18:11;;;;;;;11.98;7.07;;;;;;;-4.26;77.04;100168.13;5038096;28;20143;-52
2022/03/07 03:20:37;;;;;;;16.48;8.73;;;;;;;-4.42;71.86;100165.91;5031841;28;20025;-55
2022/03/07 03:23:02;;;;;;;13.40;7.80;;;;;;;-4.46;71.12;100174.13;5032055;28;20483;-52
2022/03/07 03:25:28;;;;;;;12.50;6.55;;;;;;;-4.42;71.70;100167.69;5035522;28;20039;-52
2022/03/07 03:27:53;;;;;;;12.07;6.63;;;;;;;-4.35;72.64;100172.28;5030259;28;20033;-53
2022/03/07 03:30:19;;;;;;;12.38;7.13;;;;;;;-4.38;70.66;100176.97;5036854;28;20025;-54
2022/03/07 03:32:44;;;;;;;15.98;6.55;;;;;;;-4.40;69.78;100169.22;5035723;28;20041;-53
2022/03/07 03:35:09;;;;;;;13.63;7.53;;;;;;;-4.42;70.22;100178.16;5030739;28;20403;-54
2022/03/07 03:37:35;;;;;;;15.52;6.93;;;;;;;-4.39;70.25;100185.78;5031339;28;20040;-52
2022/03/07 03:40:01;;;;;;;12.65;7.40;;;;;;;-4.34;69.79;100176.59;5037198;28;20038;-53
2022/03/07 03:42:27;;;;;;;10.52;6.05;;;;;;;-4.29;69.44;100176.22;5034308;28;20074;-53
2022/03/07 03:44:52;;;;;;;11.07;6.30;;;;;;;-4.24;70.70;100184.53;5044100;28;20402;-51
2022/03/07 03:47:17;;;;;;;13.05;6.55;;;;;;;-4.32;69.21;100186.91;5035708;28;20041;-51
2022/03/07 03:49:43;;;;;;;9.98;6.05;;;;;;;-4.42;69.32;100176.38;5035766;28;20056;-52
2022/03/07 03:52:08;;;;;;;15.88;6.30;;;;;;;-4.38;70.01;100184.81;5031171;28;20025;-52
2022/03/07 03:54:34;;;;;;;14.45;6.20;;;;;;;-4.39;68.56;100181.38;5039107;28;20117;-51
2022/03/07 03:56:59;;;;;;;14.15;6.85;;;;;;;-4.57;69.29;100186.28;5029856;28;20372;-53
2022/03/07 03:59:25;;;;;;;10.60;6.45;;;;;;;-4.81;70.94;100183.81;5037234;28;20029;-54
2022/03/07 04:01:50;;;;;;;15.48;7.53;;;;;;;-4.42;74.67;100186.00;5030707;28;20360;-50
2022/03/07 04:04:16;;;;;;;16.60;8.88;;;;;;;-4.31;72.61;100178.13;5030240;28;20025;-52
2022/03/07 04:06:41;;;;;;;11.27;6.72;;;;;;;-4.19;75.48;100177.13;5034927;28;20083;-53
2022/03/07 04:09:08;;;;;;;15.45;7.22;;;;;;;-4.41;73.06;100192.91;5035198;28;20029;-53
2022/03/07 04:11:33;;;;;;;14.98;7.25;;;;;;;-4.39;73.90;100191.00;5035869;28;20450;-53
2022/03/07 04:13:59;;;;;;;12.07;7.25;;;;;;;-4.58;72.25;100186.41;5029858;28;20034;-53
2022/03/07 04:16:24;;;;;;;12.75;7.18;;;;;;;-4.79;71.97;100194.16;5032991;28;20021;-53
2022/03/07 04:18:49;;;;;;;15.90;8.43;;;;;;;-4.56;79.78;100190.56;5031267;28;20040;-50
2022/03/07 04:21:15;;;;;;;20.75;8.98;;;;;;;-4.29;79.76;100186.69;5030399;28;20079;-54
2022/03/07 04:23:40;;;;;;;15.10;7.75;;;;;;;-4.37;79.94;100194.31;5031068;28;20030;-53
2022/03/07 04:26:06;;;;;;;14.52;7.20;;;;;;;-4.28;79.71;100203.22;5033656;28;20479;-52
2022/03/07 04:28:32;;;;;;;13.75;7.65;;;;;;;-4.60;76.15;100198.75;5037890;28;20036;-53
2022/03/07 04:30:58;;;;;;;14.73;7.43;;;;;;;-4.84;74.69;100201.50;5036711;28;20037;-51
2022/03/07 04:33:23;;;;;;;21.73;7.32;;;;;;;-5.10;73.40;100206.97;5035464;28;20452;-54
2022/03/07 04:35:49;;;;;;;15.55;7.25;;;;;;;-5.00;79.92;100210.53;5034839;28;20036;-50
2022/03/07 04:38:15;;;;;;;13.23;6.82;;;;;;;-5.04;76.18;100214.38;5030015;28;20029;-53
2022/03/07 04:40:40;;;;;;;16.08;6.97;;;;;;;-4.97;75.34;100219.09;5030137;28;20030;-52
2022/03/07 04:43:06;;;;;;;20.40;8.05;;;;;;;-4.89;79.89;100224.56;5037983;28;20112;-52
2022/03/07 04:45:31;;;;;;;15.60;8.52;;;;;;;-5.00;76.74;100218.38;5036142;28;20033;-53
2022/03/07 04:47:56;;;;;;;22.65;8.70;;;;;;;-5.10;76.53;100220.06;5036789;28;20484;-52
2022/03/07 04:50:22;;;;;;;18.33;9.25;;;;;;;-5.26;75.61;100216.97;5039830;28;20021;-53
2022/03/07 04:52:47;;;;;;;18.08;8.77;;;;;;;-5.01;77.16;100216.75;5031181;28;20037;-53
2022/03/07 04:55:13;;;;;;;18.70;8.77;;;;;;;-5.43;75.07;100211.22;5034700;28;20024;-53
2022/03/07 04:57:38;;;;;;;19.38;8.52;;;;;;;-5.27;74.02;100217.91;5031395;28;20037;-52
2022/03/07 05:00:08;;;;;;;17.35;7.70;;;;;;;-5.17;78.50;100220.63;5037867;28;20112;-50
2022/03/07 05:02:33;;;;;;;15.32;7.57;;;;;;;-5.08;75.38;100218.16;5044676;28;20029;-53
2022/03/07 05:04:59;;;;;;;18.85;7.43;;;;;;;-5.30;73.86;100215.53;5030476;28;20033;-53
2022/03/07 05:07:24;;;;;;;15.50;8.20;;;;;;;-5.48;74.27;100215.97;5029958;28;20034;-52
2022/03/07 05:09:50;;;;;;;18.58;7.70;;;;;;;-5.57;74.63;100221.88;5030257;28;20471;-52
2022/03/07 05:12:15;;;;;;;15.85;8.30;;;;;;;-5.34;78.05;100224.53;5035247;28;20034;-53
2022/03/07 05:14:40;;;;;;;17.23;9.50;;;;;;;-5.07;77.24;100225.03;5030300;28;20456;-50
2022/03/07 05:17:06;;;;;;;20.00;10.00;;;;;;;-5.09;74.07;100223.50;5034702;28;20037;-54
2022/03/07 05:19:32;;;;;;;17.40;9.05;;;;;;;-5.13;73.71;100227.31;5047911;28;20041;-52
2022/03/07 05:21:57;;;;;;;15.27;8.40;;;;;;;-5.22;73.51;100224.47;5034778;28;20048;-51
2022/03/07 05:24:23;;;;;;;18.13;9.02;;;;;;;-5.44;75.29;100224.41;5040311;28;20093;-51
2022/03/07 05:26:48;;;;;;;23.88;10.43;;;;;;;-5.24;77.36;100223.75;5034776;28;20423;-54
2022/03/07 05:29:14;;;;;;;23.63;9.35;;;;;;;-5.53;74.72;100230.31;5035944;28;20495;-52
2022/03/07 05:31:39;;;;;;;27.52;11.65;;;;;;;-4.86;81.20;100224.34;5035777;28;20037;-52
2022/03/07 05:34:05;;;;;;;18.15;9.73;;;;;;;-5.17;75.27;100225.88;5035801;28;20309;-52
2022/03/07 05:36:30;;;;;;;18.10;9.48;;;;;;;-4.96;81.03;100223.41;5027838;28;20083;-53
2022/03/07 05:38:55;;;;;;;19.88;9.63;;;;;;;-4.51;83.91;100223.38;5035842;28;20025;-53
2022/03/07 05:41:21;;;;;;;15.70;8.45;;;;;;;-4.90;75.48;100225.53;5026900;28;20048;-51
2022/03/07 05:43:46;;;;;;;18.92;8.30;;;;;;;-5.01;74.12;100226.38;5041994;28;20041;-53
2022/03/07 05:46:13;;;;;;;22.83;10.57;;;;;;;-4.83;81.93;100231.97;5031830;28;20058;-51
2022/03/07 05:48:38;;;;;;;24.65;10.98;;;;;;;-5.00;76.62;100231.47;5033160;28;20410;-52
2022/03/07 05:51:03;;;;;;;29.85;12.85;;;;;;;-4.74;82.34;100223.41;5033700;28;20033;-50
2022/03/07 05:53:29;;;;;;;44.83;17.38;;;;;;;-4.79;78.66;100236.00;5029556;28;20075;-51
2022/03/07 05:55:54;;;;;;;35.42;15.40;;;;;;;-5.07;75.60;100234.66;5027989;28;20068;-51
2022/03/07 05:58:20;;;;;;;25.70;10.73;;;;;;;-5.31;73.30;100234.78;5029612;28;20102;-52
2022/03/07 06:00:45;;;;;;;29.77;11.68;;;;;;;-5.43;75.38;100234.72;5028484;28;20064;-54
2022/03/07 06:03:11;;;;;;;29.67;12.23;;;;;;;-5.22;78.55;100244.50;5027891;28;20040;-54
2022/03/07 06:05:37;;;;;;;23.73;11.07;;;;;;;-5.44;73.94;100247.94;5028387;28;20392;-51
2022/03/07 06:08:03;;;;;;;29.73;11.93;;;;;;;-5.65;74.73;100245.13;5033759;28;20621;-50
2022/03/07 06:10:28;;;;;;;21.55;10.48;;;;;;;-5.80;75.73;100247.09;5035592;28;20218;-54
2022/03/07 06:12:53;;;;;;;24.13;11.68;;;;;;;-5.69;76.10;100243.66;5031895;28;20386;-53
2022/03/07 06:15:20;;;;;;;37.55;13.27;;;;;;;-5.57;76.81;100250.59;5032726;28;20036;-53
2022/03/07 06:17:53;;;;;;;49.83;13.82;;;;;;;-5.39;77.20;100251.03;5028788;28;20038;-52
2022/03/07 06:20:19;;;;;;;47.47;15.20;;;;;;;-5.07;74.45;100255.59;5030318;28;20034;-52
2022/03/07 06:22:44;;;;;;;44.97;12.63;;;;;;;-4.84;74.58;100259.03;5032883;28;20057;-53
2022/03/07 06:25:10;;;;;;;42.00;13.52;;;;;;;-4.88;74.24;100257.63;5035196;28;20051;-53
2022/03/07 06:27:35;;;;;;;44.50;13.90;;;;;;;-5.17;73.79;100258.06;5033978;28;20033;-54
2022/03/07 06:30:01;;;;;;;47.58;14.15;;;;;;;-4.66;75.94;100260.25;5038938;28;20045;-54
2022/03/07 06:32:26;;;;;;;36.63;12.98;;;;;;;-4.63;72.81;100261.81;5032485;28;20025;-52
2022/03/07 06:34:52;;;;;;;51.67;13.50;;;;;;;-4.71;72.36;100259.78;5025488;28;20050;-54
2022/03/07 06:37:17;;;;;;;47.22;13.55;;;;;;;-4.61;72.37;100263.34;5032352;28;20029;-54
2022/03/07 06:39:43;;;;;;;37.80;13.73;;;;;;;-4.92;73.41;100262.25;5036266;28;20490;-51
2022/03/07 06:42:08;;;;;;;39.38;13.98;;;;;;;-4.65;71.53;100259.28;5034343;28;20376;-54
2022/03/07 06:44:39;;;;;;;36.70;12.43;;;;;;;-4.50;71.72;100262.50;5039474;28;20040;-54
2022/03/07 06:47:05;;;;;;;;;;;;;;;-4.24;70.45;100257.84;5043010;28;20498;-54
2022/03/07 06:49:30;;;;;;;45.45;12.77;;;;;;;-4.02;70.26;100256.97;5042516;28;19921;-54
2022/03/07 06:51:55;;;;;;;36.78;15.57;;;;;;;-3.77;69.38;100254.94;5037461;28;20040;-54
2022/03/07 06:54:21;;;;;;;30.90;12.73;;;;;;;-4.09;70.41;100254.94;5042022;28;20041;-54
2022/03/07 06:56:46;;;;;;;40.47;13.93;;;;;;;-3.81;68.91;100254.38;5032741;28;20361;-54
2022/03/07 06:59:12;;;;;;;54.38;15.35;;;;;;;-2.63;64.77;100256.75;5032586;28;20081;-51
2022/03/07 07:01:37;;;;;;;35.35;15.50;;;;;;;-2.93;64.89;100250.56;5034823;28;20495;-53
2022/03/07 07:04:03;;;;;;;41.40;15.23;;;;;;;-2.87;64.34;100255.28;5036017;28;20840;-55
2022/03/07 07:06:28;;;;;;;39.15;16.35;;;;;;;-2.88;64.61;100266.72;5038241;28;20025;-54
2022/03/07 07:08:53;;;;;;;40.55;15.38;;;;;;;-3.56;66.88;100265.47;5039793;28;20491;-52
2022/03/07 07:11:19;;;;;;;50.28;17.42;;;;;;;-3.92;68.97;100267.50;5031403;28;20033;-51
2022/03/07 07:13:44;;;;;;;66.10;21.77;;;;;;;-3.48;67.74;100279.59;5039269;28;20115;-52
2022/03/07 07:16:10;;;;;;;62.75;20.63;;;;;;;-3.01;65.99;100279.22;5031033;28;20435;-54
2022/03/07 07:18:35;;;;;;;72.88;20.15;;;;;;;-2.44;63.83;100272.59;5035687;28;20037;-53
2022/03/07 07:21:01;;;;;;;62.38;20.25;;;;;;;-2.08;64.52;100278.22;5031549;28;20029;-52
2022/03/07 07:23:27;;;;;;;53.95;18.65;;;;;;;-1.25;62.04;100281.28;5033502;28;20032;-52
2022/03/07 07:25:54;;;;;;;55.83;18.73;;;;;;;-0.09;57.49;100281.88;5038568;28;20129;-53
2022/03/07 07:28:19;;;;;;;56.47;19.48;;;;;;;0.17;56.46;100288.06;5042852;28;20111;-51
2022/03/07 07:30:46;;;;;;;37.22;15.70;;;;;;;1.79;52.07;100288.56;5036447;28;20143;-50
2022/03/07 07:33:12;;;;;;;37.78;15.30;;;;;;;2.41;48.94;100285.56;5039265;28;20041;-53
2022/03/07 07:35:37;;;;;;;51.05;16.70;;;;;;;1.71;50.89;100286.69;5036559;28;20033;-53
2022/03/07 07:38:03;;;;;;;53.35;17.98;;;;;;;1.69;51.90;100288.66;5037489;28;20456;-53
2022/03/07 07:40:29;;;;;;;43.80;16.08;;;;;;;2.23;50.52;100293.66;5031674;28;20075;-52
2022/03/07 07:42:55;;;;;;;39.35;15.10;;;;;;;1.90;48.87;100290.91;5031546;28;20399;-53
2022/03/07 07:45:20;;;;;;;52.53;13.15;;;;;;;1.68;48.82;100291.50;5039803;28;20517;-52
2022/03/07 07:47:46;;;;;;;58.50;14.60;;;;;;;2.21;49.46;100292.16;5037688;28;20041;-54
2022/03/07 07:50:11;;;;;;;44.50;14.23;;;;;;;2.96;47.97;100298.16;5038772;28;20044;-52
2022/03/07 07:52:36;;;;;;;39.72;16.73;;;;;;;3.19;48.64;100290.34;5041670;28;20021;-54
2022/03/07 07:55:04;;;;;;;41.53;15.90;;;;;;;3.29;48.59;100291.97;5031838;28;20033;-54
2022/03/07 07:57:31;;;;;;;32.13;14.68;;;;;;;3.63;47.66;100300.50;5033827;28;20487;-53
2022/03/07 07:59:56;;;;;;;41.08;16.83;;;;;;;3.82;46.74;100295.78;5041049;28;20033;-54
2022/03/07 08:02:21;;;;;;;39.13;12.50;;;;;;;3.50;44.06;100300.22;5044816;28;20056;-54
2022/03/07 08:04:47;;;;;;;37.03;16.02;;;;;;;4.32;44.64;100295.38;5030217;28;20029;-54
2022/03/07 08:07:12;;;;;;;42.20;16.33;;;;;;;4.43;45.12;100291.47;5038756;28;20026;-53
2022/03/07 08:09:38;;;;;;;32.70;13.23;;;;;;;4.92;42.37;100287.63;5039120;28;20366;-54
2022/03/07 08:12:04;;;;;;;33.58;14.10;;;;;;;4.80;41.36;100297.03;5033901;28;20087;-54
2022/03/07 08:14:29;;;;;;;30.50;14.07;;;;;;;5.23;40.93;100297.28;5033627;28;20114;-54
2022/03/07 08:16:55;;;;;;;26.70;12.45;;;;;;;4.73;41.19;100291.59;5033694;28;20029;-50
2022/03/07 08:19:20;;;;;;;28.13;14.77;;;;;;;3.74;40.98;100295.81;5036922;28;20033;-56
2022/03/07 08:21:45;;;;;;;35.58;11.90;;;;;;;4.55;41.36;100299.88;5032794;28;20029;-54
2022/03/07 08:24:11;;;;;;;32.40;12.80;;;;;;;4.75;39.84;100295.72;5036148;28;20036;-52
2022/03/07 08:26:38;;;;;;;26.50;12.05;;;;;;;4.26;40.45;100293.41;5042819;28;20530;-52
2022/03/07 08:29:04;;;;;;;48.33;10.95;;;;;;;4.68;40.17;100301.94;5035591;28;20163;-49
2022/03/07 08:31:29;;;;;;;26.33;11.45;;;;;;;3.93;40.02;100300.72;5037472;28;20431;-52
2022/03/07 08:33:55;;;;;;;25.48;11.25;;;;;;;3.73;42.06;100300.31;5029234;28;20467;-53
2022/03/07 08:36:20;;;;;;;19.38;10.80;;;;;;;2.96;41.59;100299.97;5036141;28;20060;-53
2022/03/07 08:38:46;;;;;;;26.02;11.20;;;;;;;2.47;43.43;100292.00;5030299;28;20043;-54
2022/03/07 08:41:11;;;;;;;24.48;11.43;;;;;;;2.17;44.50;100296.91;5035261;28;20037;-52
2022/03/07 08:43:36;;;;;;;22.92;12.10;;;;;;;2.56;44.45;100301.63;5038260;28;20035;-52
2022/03/07 08:46:02;;;;;;;32.55;12.63;;;;;;;4.27;41.35;100304.88;5035944;28;20068;-52
2022/03/07 08:48:29;;;;;;;33.45;12.45;;;;;;;3.82;41.21;100309.03;5029481;28;20041;-51
2022/03/07 08:50:55;;;;;;;19.33;10.68;;;;;;;2.17;45.41;100294.28;5030757;28;20030;-53
2022/03/07 08:53:20;;;;;;;32.50;11.90;;;;;;;3.84;41.83;100307.91;5030301;28;20541;-52
2022/03/07 08:55:46;;;;;;;29.80;12.38;;;;;;;3.36;42.77;100306.22;5029958;28;20029;-52
2022/03/07 08:58:11;;;;;;;26.45;10.98;;;;;;;3.51;41.62;100304.50;5030184;28;20025;-52
2022/03/07 09:00:36;;;;;;;24.85;11.07;;;;;;;3.78;40.91;100305.09;5029381;28;20029;-53
2022/03/07 09:03:04;;;;;;;25.15;11.32;;;;;;;3.17;41.57;100299.44;5036892;28;20036;-55
2022/03/07 09:05:29;;;;;;;24.52;12.02;;;;;;;2.95;42.57;100299.16;5034093;28;20475;-54
2022/03/07 09:07:55;;;;;;;28.10;12.05;;;;;;;3.52;42.27;100303.53;5037029;28;20036;-54
2022/03/07 09:10:21;;;;;;;23.60;11.57;;;;;;;3.28;41.63;100295.63;5032573;28;20033;-55
2022/03/07 09:12:46;;;;;;;22.38;11.85;;;;;;;4.37;40.91;100294.00;5029673;28;20037;-52
2022/03/07 09:15:14;;;;;;;22.35;10.25;;;;;;;3.29;41.48;100297.28;5029238;28;20276;-53
2022/03/07 09:17:40;;;;;;;22.58;11.63;;;;;;;3.24;41.94;100301.28;5042437;28;20037;-54
2022/03/07 09:20:06;;;;;;;19.55;10.70;;;;;;;3.28;42.19;100298.28;5043350;28;20390;-54
2022/03/07 09:22:31;;;;;;;28.13;12.68;;;;;;;3.12;42.63;100297.34;5034786;28;20298;-54
2022/03/07 09:24:57;;;;;;;24.20;11.57;;;;;;;2.67;43.73;100297.81;5032889;28;20040;-55
2022/03/07 09:27:22;;;;;;;24.40;12.05;;;;;;;2.53;44.20;100296.66;5033324;28;20029;-54
2022/03/07 09:29:48;;;;;;;21.83;10.65;;;;;;;3.01;43.60;100302.94;5033143;28;20045;-54
2022/03/07 09:32:13;;;;;;;27.63;12.23;;;;;;;2.42;44.17;100304.91;5028330;28;20036;-53
2022/03/07 09:34:39;;;;;;;24.77;11.68;;;;;;;3.35;43.52;100291.31;5034973;28;20029;-55
2022/03/07 09:37:04;;;;;;;22.77;10.05;;;;;;;2.96;43.71;100307.94;5032888;28;20025;-52
2022/03/07 09:39:31;;;;;;;26.55;14.40;;;;;;;1.98;45.41;100299.88;5029879;28;20040;-53
2022/03/07 09:41:57;;;;;;;19.60;10.18;;;;;;;2.70;44.93;100303.63;5028462;28;20048;-52
2022/03/07 09:44:23;;;;;;;19.95;9.75;;;;;;;2.06;46.55;100299.88;5035895;28;20045;-53
2022/03/07 09:46:49;;;;;;;23.25;11.48;;;;;;;2.57;44.31;100303.28;5030638;28;20053;-52
2022/03/07 09:49:15;;;;;;;26.08;13.80;;;;;;;1.60;47.19;100294.06;5034147;28;20029;-53
2022/03/07 09:51:40;;;;;;;17.33;8.20;;;;;;;2.19;46.05;100294.94;5033377;28;20033;-52
2022/03/07 09:54:06;;;;;;;17.77;7.82;;;;;;;2.28;45.49;100296.63;5027578;28;20021;-54
2022/03/07 09:56:32;;;;;;;16.13;8.10;;;;;;;2.79;45.03;100302.63;5027787;28;20030;-53
2022/03/07 09:58:57;;;;;;;19.60;9.98;;;;;;;2.84;45.07;100293.38;5031410;28;20037;-54
2022/03/07 10:01:22;;;;;;;31.15;12.43;;;;;;;3.06;44.01;100299.81;5032263;28;20021;-54
2022/03/07 10:03:48;;;;;;;15.25;7.70;;;;;;;2.87;44.54;100303.63;5034248;28;20490;-50
2022/03/07 10:06:17;;;;;;;16.08;8.32;;;;;;;2.31;45.93;100304.22;5034855;28;20018;-53
2022/03/07 10:08:56;;;;;;;17.73;9.05;;;;;;;2.26;45.61;100292.50;5034635;28;20041;-51
2022/03/07 10:11:22;;;;;;;20.65;11.30;;;;;;;1.84;46.50;100301.28;5032366;28;20060;-53
2022/03/07 10:13:58;;;;;;;16.55;8.73;;;;;;;2.26;46.37;100293.31;5027043;28;20091;-50
2022/03/07 10:16:24;;;;;;;13.38;7.35;;;;;;;2.47;45.75;100297.31;5032724;28;20041;-53
2022/03/07 10:18:53;;;;;;;20.25;9.52;;;;;;;2.77;45.10;100290.53;5030842;28;20041;-53
2022/03/07 10:21:23;;;;;;;18.77;9.25;;;;;;;2.37;46.33;100290.38;5033500;28;20372;-51
2022/03/07 10:23:55;;;;;;;21.67;10.13;;;;;;;3.10;45.15;100286.06;5030750;28;20094;-51
2022/03/07 10:26:20;;;;;;;19.15;10.50;;;;;;;2.67;45.41;100281.94;5031896;28;20135;-52
2022/03/07 10:28:56;;;;;;;21.48;10.93;;;;;;;2.89;45.45;100272.50;5030370;28;20116;-51
2022/03/07 10:31:21;;;;;;;17.30;8.45;;;;;;;3.37;44.24;100278.69;5027674;28;20026;-50
2022/03/07 10:33:48;;;;;;;19.77;10.65;;;;;;;2.96;44.88;100289.38;5030637;28;20040;-53
2022/03/07 10:36:14;;;;;;;23.27;10.60;;;;;;;2.94;45.33;100273.66;5026754;28;20523;-53
2022/03/07 10:38:39;;;;;;;21.90;10.27;;;;;;;2.68;45.80;100267.72;5027950;28;20037;-55
2022/03/07 10:41:05;;;;;;;21.55;10.45;;;;;;;2.90;45.45;100282.94;5010126;28;20425;-51
2022/03/07 10:43:31;;;;;;;18.13;8.93;;;;;;;2.43;46.26;100274.84;5028047;28;20124;-49
2022/03/07 10:46:00;;;;;;;21.15;10.18;;;;;;;2.87;45.70;100277.13;5034222;28;20570;-51
2022/03/07 10:48:39;;;;;;;21.95;10.70;;;;;;;3.12;45.12;100260.25;5042471;28;20383;-50
2022/03/07 10:51:05;;;;;;;15.75;8.50;;;;;;;3.50;44.16;100271.06;5028898;28;20038;-51
2022/03/07 10:53:39;;;;;;;14.68;9.15;;;;;;;3.06;45.27;100266.19;5028079;28;20499;-52
2022/03/07 10:56:04;;;;;;;17.85;10.13;;;;;;;2.67;46.48;100264.25;5033430;28;20036;-51
2022/03/07 10:58:30;;;;;;;16.73;9.85;;;;;;;2.63;47.12;100260.28;5027453;28;20443;-50
2022/03/07 11:00:57;;;;;;;22.52;10.23;;;;;;;3.17;45.02;100265.84;5036415;28;20059;-51
2022/03/07 11:03:28;;;;;;;21.90;8.82;;;;;;;3.82;44.08;100266.59;5032729;28;20094;-53
2022/03/07 11:05:54;;;;;;;17.77;7.90;;;;;;;2.87;45.73;100271.84;5034460;28;20253;-52
2022/03/07 11:08:20;;;;;;;18.50;9.90;;;;;;;3.16;45.06;100261.53;5043363;28;20049;-54
2022/03/07 11:10:47;;;;;;;17.58;9.75;;;;;;;2.71;45.32;100262.09;5031147;28;20083;-54